Time;durP1;ratioP1;P1;durP2;ratioP2;P2;SDS_P1;SDS_P2;PMS_P1;PMS_P2;Temp;Humidity;BMP_temperature;BMP_pressure;BME280_temperature;BME280_humidity;BME280_pressure;Samples;Min_cycle;Max_cycle;Signal;HPM_P1;HPM_P2
2023/12/14 00:01:21;;;;;;;6.63;2.88;;;1.70;99.90;;;;;;5027942;28;20018;-93
2023/12/14 00:03:48;;;;;;;7.85;2.72;;;1.70;99.90;;;;;;5032055;28;20014;-91
2023/12/14 00:06:13;;;;;;;7.22;2.97;;;1.70;99.90;;;;;;5032263;28;20056;-90
2023/12/14 00:08:39;;;;;;;6.75;2.42;;;1.70;99.90;;;;;;5049294;28;20053;-91
2023/12/14 00:11:10;;;;;;;8.57;2.40;;;1.60;99.90;;;;;;5029422;28;20084;-92
2023/12/14 00:13:36;;;;;;;6.45;2.63;;;1.60;99.90;;;;;;5028586;28;20040;-94
2023/12/14 00:16:02;;;;;;;9.95;3.00;;;1.60;99.90;;;;;;5033461;28;20017;-87
2023/12/14 00:18:28;;;;;;;7.07;2.28;;;1.60;99.90;;;;;;5031076;28;20040;-91
2023/12/14 00:20:54;;;;;;;8.43;2.05;;;1.60;99.90;;;;;;5046251;28;20074;-92
2023/12/14 00:23:20;;;;;;;6.78;2.50;;;1.50;99.90;;;;;;5044035;28;20026;-95
2023/12/14 00:25:46;;;;;;;7.15;2.67;;;1.50;99.90;;;;;;5027080;28;20171;-95
2023/12/14 00:28:12;;;;;;;10.68;2.78;;;1.50;99.90;;;;;;5024918;28;20036;-94
2023/12/14 00:30:38;;;;;;;11.82;3.83;;;1.50;99.90;;;;;;5043159;28;20079;-93
2023/12/14 00:33:04;;;;;;;14.73;4.28;;;1.40;99.90;;;;;;5018752;28;20040;-89
2023/12/14 00:35:30;;;;;;;14.98;3.97;;;1.40;99.90;;;;;;5029004;28;20029;-94
2023/12/14 00:37:55;;;;;;;9.73;3.30;;;1.30;99.90;;;;;;5035902;28;20042;-93
2023/12/14 00:40:21;;;;;;;11.18;3.58;;;1.30;99.90;;;;;;5035973;28;20104;-94
2023/12/14 00:42:47;;;;;;;9.40;3.22;;;1.30;99.90;;;;;;5037385;28;20042;-94
2023/12/14 00:45:12;;;;;;;9.07;3.05;;;1.30;99.90;;;;;;5033256;28;20051;-94
2023/12/14 00:47:38;;;;;;;6.53;2.70;;;1.30;99.90;;;;;;5034041;28;20313;-95
2023/12/14 00:50:04;;;;;;;7.25;2.50;;;1.30;99.90;;;;;;5030238;28;20056;-94
2023/12/14 00:52:31;;;;;;;8.50;2.55;;;1.30;99.90;;;;;;5024488;28;20073;-91
2023/12/14 00:54:59;;;;;;;4.47;1.90;;;1.30;99.90;;;;;;5045494;28;20106;-93
2023/12/14 00:57:25;;;;;;;5.72;2.45;;;1.30;99.90;;;;;;5028383;28;20041;-92
2023/12/14 00:59:50;;;;;;;9.52;2.42;;;1.30;99.90;;;;;;5042039;28;20038;-93
2023/12/14 01:02:16;;;;;;;7.70;2.00;;;1.30;99.90;;;;;;5028780;28;20024;-94
2023/12/14 01:04:42;;;;;;;8.93;2.38;;;1.30;99.90;;;;;;5046096;28;20037;-93
2023/12/14 01:07:08;;;;;;;5.32;2.30;;;1.30;99.90;;;;;;5023819;28;20038;-93
2023/12/14 01:09:34;;;;;;;6.13;2.30;;;1.30;99.90;;;;;;5040880;28;20029;-94
2023/12/14 01:11:59;;;;;;;8.23;3.85;;;1.30;99.90;;;;;;5044442;28;20057;-95
2023/12/14 01:14:25;;;;;;;5.55;2.40;;;1.30;99.90;;;;;;5028633;28;20017;-93
2023/12/14 01:16:51;;;;;;;5.57;2.17;;;1.20;99.90;;;;;;5026048;28;20033;-93
2023/12/14 01:19:17;;;;;;;6.95;2.22;;;1.20;99.90;;;;;;5029221;28;20025;-94
2023/12/14 01:21:42;;;;;;;9.05;2.25;;;1.20;99.90;;;;;;5022385;28;20044;-95
2023/12/14 01:24:08;;;;;;;7.72;2.53;;;1.20;99.90;;;;;;5023323;28;20049;-95
2023/12/14 01:26:34;;;;;;;5.18;2.38;;;1.20;99.90;;;;;;5023844;28;20033;-96
2023/12/14 01:28:59;;;;;;;7.63;2.80;;;1.20;99.90;;;;;;5023063;28;20028;-95
2023/12/14 01:31:26;;;;;;;8.32;2.70;;;1.20;99.90;;;;;;5022514;28;20045;-94
2023/12/14 01:33:52;;;;;;;6.47;2.13;;;1.20;99.90;;;;;;5025383;28;20089;-93
2023/12/14 01:36:26;;;;;;;6.32;2.20;;;1.20;99.90;;;;;;5023648;28;20116;-95
2023/12/14 01:38:52;;;;;;;5.30;1.80;;;1.10;99.90;;;;;;5038588;28;20041;-95
2023/12/14 01:41:18;;;;;;;7.93;1.92;;;1.10;99.90;;;;;;5021300;28;20022;-93
2023/12/14 01:43:44;;;;;;;6.60;1.63;;;1.10;99.90;;;;;;5021192;28;20109;-94
2023/12/14 01:46:11;;;;;;;9.25;1.90;;;1.10;99.90;;;;;;5023704;28;20026;-95
2023/12/14 01:48:37;;;;;;;3.58;1.77;;;1.10;99.90;;;;;;5020787;28;20049;-93
2023/12/14 01:51:03;;;;;;;11.73;2.72;;;1.10;99.90;;;;;;5025693;28;20022;-95
2023/12/14 01:53:28;;;;;;;5.35;2.22;;;1.10;99.90;;;;;;5042495;28;20117;-91
2023/12/14 01:55:54;;;;;;;9.43;3.35;;;1.10;99.90;;;;;;5025304;28;20022;-93
2023/12/14 01:58:20;;;;;;;8.02;3.47;;;1.00;99.90;;;;;;5026786;28;20042;-94
2023/12/14 02:00:58;;;;;;;11.63;4.03;;;1.00;99.90;;;;;;5029261;28;20017;-92
2023/12/14 02:03:24;;;;;;;10.48;4.30;;;1.00;99.90;;;;;;5026354;28;20022;-94
2023/12/14 02:05:49;;;;;;;10.63;4.40;;;1.00;99.90;;;;;;5019906;28;20048;-94
2023/12/14 02:08:15;;;;;;;9.98;3.85;;;1.00;99.90;;;;;;5022002;28;20113;-94
2023/12/14 02:10:40;;;;;;;9.68;4.53;;;1.00;99.90;;;;;;5040383;28;20033;-92
2023/12/14 02:13:07;;;;;;;7.30;3.85;;;1.00;99.90;;;;;;5024166;28;20021;-95
2023/12/14 02:15:33;;;;;;;18.30;5.40;;;1.00;99.90;;;;;;5023531;28;20093;-93
2023/12/14 02:17:58;;;;;;;8.77;3.88;;;1.10;99.90;;;;;;5038405;28;20045;-94
2023/12/14 02:20:24;;;;;;;6.93;3.22;;;1.10;99.90;;;;;;5024565;28;20032;-94
2023/12/14 02:22:53;;;;;;;9.25;3.53;;;1.10;99.90;;;;;;5021800;28;20193;-95
2023/12/14 02:25:19;;;;;;;9.20;3.75;;;1.10;99.90;;;;;;5025661;28;20052;-92
2023/12/14 02:27:45;;;;;;;7.30;3.05;;;1.10;99.90;;;;;;5041169;28;20030;-93
2023/12/14 02:30:12;;;;;;;10.85;2.90;;;1.10;99.90;;;;;;5040837;28;20021;-93
2023/12/14 02:32:38;;;;;;;7.80;2.65;;;1.10;99.90;;;;;;5041646;28;20037;-93
2023/12/14 02:35:08;;;;;;;6.63;2.67;;;1.10;99.90;;;;;;5043765;28;20077;-95
2023/12/14 02:37:36;;;;;;;9.02;2.88;;;1.10;99.90;;;;;;5028235;28;20037;-95
2023/12/14 02:40:03;;;;;;;9.48;3.20;;;1.10;99.90;;;;;;5041120;28;20013;-95
2023/12/14 02:42:29;;;;;;;9.07;4.07;;;1.10;99.90;;;;;;5025731;28;20025;-92
2023/12/14 02:44:55;;;;;;;10.73;4.32;;;1.10;99.90;;;;;;5025890;28;20053;-92
2023/12/14 02:47:21;;;;;;;10.27;4.70;;;1.10;99.90;;;;;;5022537;28;20037;-95
2023/12/14 02:49:47;;;;;;;12.90;4.95;;;1.10;99.90;;;;;;5031667;28;20022;-92
2023/12/14 02:52:12;;;;;;;10.90;5.05;;;1.10;99.90;;;;;;5051717;28;20052;-92
2023/12/14 02:54:39;;;;;;;10.95;4.28;;;1.10;99.90;;;;;;5029888;28;20049;-94
2023/12/14 02:57:05;;;;;;;16.63;4.68;;;1.10;99.90;;;;;;5031173;28;20030;-92
2023/12/14 02:59:31;;;;;;;14.57;5.22;;;1.00;99.90;;;;;;5029319;28;20044;-92
2023/12/14 03:01:56;;;;;;;10.57;4.45;;;1.10;99.90;;;;;;5048031;28;20026;-92
2023/12/14 03:04:22;;;;;;;12.63;4.70;;;1.10;99.90;;;;;;5029897;28;20038;-95
2023/12/14 03:06:51;;;;;;;9.98;4.45;;;1.10;99.90;;;;;;5029862;28;20025;-93
2023/12/14 03:09:18;;;;;;;14.82;4.63;;;1.10;99.90;;;;;;5048090;28;20041;-94
2023/12/14 03:11:44;;;;;;;10.30;3.72;;;1.20;99.90;;;;;;5033830;28;20025;-93
2023/12/14 03:14:10;;;;;;;8.35;3.70;;;1.10;99.90;;;;;;5029866;28;20024;-91
2023/12/14 03:16:36;;;;;;;8.77;3.80;;;1.10;99.90;;;;;;5048281;28;20022;-94
2023/12/14 03:19:03;;;;;;;11.07;3.72;;;1.00;99.90;;;;;;5045337;28;20034;-94
2023/12/14 03:21:29;;;;;;;10.77;3.97;;;1.00;99.90;;;;;;5031263;28;20074;-92
2023/12/14 03:23:55;;;;;;;10.77;3.97;;;1.00;99.90;;;;;;5031762;28;20064;-95
2023/12/14 03:26:20;;;;;;;7.15;4.22;;;1.10;99.90;;;;;;5045403;28;20022;-93
2023/12/14 03:28:46;;;;;;;11.07;4.20;;;1.10;99.90;;;;;;5044753;28;20044;-91
2023/12/14 03:31:16;;;;;;;9.10;3.47;;;1.20;99.90;;;;;;5044848;28;20029;-93
2023/12/14 03:33:43;;;;;;;9.65;3.60;;;1.20;99.90;;;;;;5044588;28;20041;-94
2023/12/14 03:36:09;;;;;;;9.10;3.60;;;1.20;99.90;;;;;;5026651;28;20034;-91
2023/12/14 03:38:35;;;;;;;15.02;3.30;;;1.20;99.90;;;;;;5026529;28;20034;-93
2023/12/14 03:41:02;;;;;;;8.85;3.85;;;1.10;99.90;;;;;;5043174;28;20094;-92
2023/12/14 03:43:28;;;;;;;10.00;3.78;;;1.10;99.90;;;;;;5025835;28;20017;-94
2023/12/14 03:45:53;;;;;;;11.13;3.20;;;1.10;99.90;;;;;;5046386;28;20029;-92
2023/12/14 03:48:19;;;;;;;9.25;3.50;;;1.00;99.90;;;;;;5020886;28;20048;-92
2023/12/14 03:50:45;;;;;;;8.88;3.25;;;1.00;99.90;;;;;;5037504;28;20026;-93
2023/12/14 03:53:10;;;;;;;10.23;3.88;;;1.00;99.90;;;;;;5023758;28;20439;-96
2023/12/14 03:55:36;;;;;;;7.70;3.75;;;1.10;99.90;;;;;;5019948;28;20068;-95
2023/12/14 03:58:02;;;;;;;7.43;3.58;;;1.10;99.90;;;;;;5031163;28;20025;-85
2023/12/14 04:00:27;;;;;;;10.45;3.17;;;1.20;99.90;;;;;;5029606;28;20025;-86
2023/12/14 04:02:53;;;;;;;6.82;3.08;;;1.20;99.90;;;;;;5033730;28;20094;-90
2023/12/14 04:05:19;;;;;;;13.35;4.30;;;1.20;99.90;;;;;;5033380;28;20101;-92
2023/12/14 04:07:44;;;;;;;8.55;3.25;;;1.20;99.90;;;;;;5046992;28;20024;-91
2023/12/14 04:10:13;;;;;;;9.73;3.10;;;1.30;99.90;;;;;;5032215;28;20036;-94
2023/12/14 04:12:40;;;;;;;10.73;3.30;;;1.30;99.90;;;;;;5023095;28;20032;-93
2023/12/14 04:15:07;;;;;;;6.88;3.38;;;1.30;99.90;;;;;;5022280;28;20026;-96
2023/12/14 04:17:33;;;;;;;9.02;3.40;;;1.30;99.90;;;;;;5016430;28;20040;-95
2023/12/14 04:20:00;;;;;;;12.15;3.78;;;1.30;99.90;;;;;;5011921;28;20026;-93
2023/12/14 04:22:26;;;;;;;8.07;3.67;;;1.30;99.90;;;;;;5012253;28;20106;-94
2023/12/14 04:24:52;;;;;;;9.00;3.63;;;1.30;99.90;;;;;;5009381;28;20026;-94
2023/12/14 04:27:17;;;;;;;8.05;2.90;;;1.30;99.90;;;;;;5013699;28;20530;-94
2023/12/14 04:29:43;;;;;;;14.27;3.83;;;1.30;99.90;;;;;;5007266;28;20098;-94
2023/12/14 04:32:09;;;;;;;8.27;3.58;;;1.30;99.90;;;;;;5009229;28;20028;-94
2023/12/14 04:34:35;;;;;;;10.82;4.43;;;1.30;99.90;;;;;;5008551;28;20029;-95
2023/12/14 04:37:00;;;;;;;10.48;3.90;;;1.40;99.90;;;;;;5009113;28;20025;-95
2023/12/14 04:39:26;;;;;;;10.95;4.13;;;1.40;99.90;;;;;;5026730;28;20495;-94
2023/12/14 04:41:52;;;;;;;10.00;3.85;;;1.40;99.90;;;;;;5008617;28;20045;-94
2023/12/14 04:44:21;;;;;;;9.20;5.00;;;1.40;99.90;;;;;;5022980;28;20046;-95
2023/12/14 04:46:48;;;;;;;11.93;3.85;;;1.50;99.90;;;;;;5027426;28;20022;-95
2023/12/14 04:49:14;;;;;;;15.40;4.50;;;1.50;99.90;;;;;;5008174;28;20083;-93
2023/12/14 04:51:39;;;;;;;9.13;4.00;;;1.50;99.90;;;;;;5009641;28;20372;-94
2023/12/14 04:54:05;;;;;;;7.78;3.80;;;1.50;99.90;;;;;;5014683;28;20053;-95
2023/12/14 04:56:31;;;;;;;13.30;5.82;;;1.60;99.90;;;;;;5015119;28;20022;-95
2023/12/14 04:58:56;;;;;;;9.20;4.05;;;1.60;99.90;;;;;;5015076;28;20026;-95
2023/12/14 05:01:22;;;;;;;7.10;3.75;;;1.60;99.90;;;;;;5008999;28;20697;-95
2023/12/14 05:03:48;;;;;;;12.82;4.32;;;1.60;99.90;;;;;;5007056;28;20026;-95
2023/12/14 05:06:14;;;;;;;7.53;3.63;;;1.60;99.90;;;;;;5006574;28;20022;-95
2023/12/14 05:08:40;;;;;;;12.65;4.28;;;1.60;99.90;;;;;;5006579;28;20033;-95
2023/12/14 05:11:05;;;;;;;8.48;3.65;;;1.60;99.90;;;;;;5008847;28;20025;-95
2023/12/14 05:13:31;;;;;;;12.80;4.80;;;1.60;99.90;;;;;;5010015;28;20032;-95
2023/12/14 05:16:00;;;;;;;6.78;3.67;;;1.60;99.90;;;;;;5007287;28;20026;-95
2023/12/14 05:18:26;;;;;;;9.77;3.97;;;1.70;99.90;;;;;;5010693;28;20030;-94
2023/12/14 05:20:52;;;;;;;12.05;5.03;;;1.70;99.90;;;;;;5013209;28;20028;-95
2023/12/14 05:23:18;;;;;;;15.38;5.15;;;1.70;99.90;;;;;;5009353;28;20030;-96
2023/12/14 05:25:44;;;;;;;9.20;3.95;;;1.60;99.90;;;;;;5010134;28;20116;-93
2023/12/14 05:28:10;;;;;;;9.63;4.15;;;1.60;99.90;;;;;;5035056;28;20025;-92
2023/12/14 05:30:36;;;;;;;8.15;4.35;;;1.60;99.90;;;;;;5025661;28;20045;-94
2023/12/14 05:33:01;;;;;;;11.57;4.22;;;1.60;99.90;;;;;;5034633;28;20426;-95
2023/12/14 05:35:27;;;;;;;14.38;4.03;;;1.60;99.90;;;;;;5030195;28;20093;-95
2023/12/14 05:37:53;;;;;;;9.00;4.18;;;1.60;99.90;;;;;;5028388;28;20131;-94
2023/12/14 05:40:20;;;;;;;8.48;3.75;;;1.60;99.90;;;;;;5026838;28;20025;-95
2023/12/14 05:42:45;;;;;;;10.30;4.28;;;1.50;99.90;;;;;;5029938;28;20116;-95
2023/12/14 05:45:11;;;;;;;13.15;4.30;;;1.50;99.90;;;;;;5008782;28;20096;-95
2023/12/14 05:47:38;;;;;;;11.98;3.88;;;1.50;99.90;;;;;;5011614;28;20089;-95
2023/12/14 05:50:04;;;;;;;8.35;3.92;;;1.50;99.90;;;;;;5031023;28;20052;-96
2023/12/14 05:52:30;;;;;;;11.93;4.18;;;1.50;99.90;;;;;;5027128;28;20050;-95
2023/12/14 05:54:56;;;;;;;9.30;4.22;;;1.50;99.90;;;;;;5007990;28;20108;-95
2023/12/14 05:57:21;;;;;;;13.00;4.68;;;1.50;99.90;;;;;;5008297;28;20048;-95
2023/12/14 05:59:49;;;;;;;10.27;4.68;;;1.60;99.90;;;;;;5009695;28;20077;-94
2023/12/14 06:02:15;;;;;;;10.88;3.60;;;1.60;99.90;;;;;;5023520;28;20071;-93
2023/12/14 06:04:41;;;;;;;10.68;3.75;;;1.70;99.90;;;;;;5031192;28;20085;-94
2023/12/14 06:07:06;;;;;;;8.90;3.97;;;1.70;99.90;;;;;;5014353;28;20029;-95
2023/12/14 06:09:34;;;;;;;9.05;3.50;;;1.70;99.90;;;;;;5015157;28;20026;-94
2023/12/14 06:12:01;;;;;;;7.68;2.90;;;1.70;99.90;;;;;;5008600;28;20024;-94
2023/12/14 06:14:27;;;;;;;8.65;2.88;;;1.80;99.90;;;;;;5008158;28;20024;-95
2023/12/14 06:16:52;;;;;;;7.00;2.78;;;1.80;99.90;;;;;;5026752;28;20021;-95
2023/12/14 06:19:18;;;;;;;11.65;3.90;;;1.80;99.90;;;;;;5009756;28;20240;-93
2023/12/14 06:21:44;;;;;;;9.23;3.67;;;1.80;99.90;;;;;;5023734;28;20021;-95
2023/12/14 06:24:10;;;;;;;7.30;3.70;;;1.80;99.90;;;;;;5008047;28;20549;-94
2023/12/14 06:26:41;;;;;;;8.45;3.83;;;1.80;99.90;;;;;;5009248;28;20022;-95
2023/12/14 06:29:07;;;;;;;11.70;4.65;;;1.80;99.90;;;;;;5009329;28;20048;-93
2023/12/14 06:31:33;;;;;;;11.40;4.63;;;1.80;99.90;;;;;;5014772;28;20029;-94
2023/12/14 06:34:00;;;;;;;10.77;4.07;;;1.80;99.90;;;;;;5008033;28;20130;-94
2023/12/14 06:36:29;;;;;;;12.25;3.95;;;1.80;99.90;;;;;;5007708;28;20026;-94
2023/12/14 06:38:55;;;;;;;8.60;4.05;;;1.80;99.90;;;;;;5009270;28;20030;-94
2023/12/14 06:41:22;;;;;;;8.00;3.40;;;1.90;99.90;;;;;;5026175;28;20036;-94
2023/12/14 06:43:48;;;;;;;8.35;3.38;;;1.90;99.90;;;;;;5015784;28;20021;-94
2023/12/14 06:46:14;;;;;;;8.98;3.03;;;2.00;99.90;;;;;;5039032;28;20021;-93
2023/12/14 06:48:40;;;;;;;5.78;3.10;;;2.00;99.90;;;;;;5014883;28;20030;-94
2023/12/14 06:51:06;;;;;;;7.40;2.70;;;2.00;99.90;;;;;;5024522;28;20014;-93
2023/12/14 06:53:31;;;;;;;7.43;2.60;;;2.00;99.90;;;;;;5028261;28;20020;-88
2023/12/14 06:55:57;;;;;;;6.30;2.50;;;2.10;99.90;;;;;;5028940;28;20036;-86
2023/12/14 06:58:23;;;;;;;6.30;2.85;;;2.10;99.90;;;;;;5038152;28;20056;-93
2023/12/14 07:00:48;;;;;;;8.48;2.65;;;2.10;99.90;;;;;;5016287;28;20021;-93
2023/12/14 07:03:14;;;;;;;6.85;3.30;;;2.10;99.90;;;;;;5012547;28;20026;-92
2023/12/14 07:05:40;;;;;;;5.22;2.97;;;2.20;99.90;;;;;;5031437;28;20037;-93
2023/12/14 07:08:06;;;;;;;6.80;2.60;;;2.20;99.90;;;;;;5010240;28;20049;-94
2023/12/14 07:10:34;;;;;;;5.53;3.33;;;2.20;99.90;;;;;;5005495;28;20045;-92
2023/12/14 07:13:00;;;;;;;5.95;2.47;;;2.20;99.90;;;;;;5005049;28;20030;-90
2023/12/14 07:15:26;;;;;;;5.10;2.50;;;2.20;99.90;;;;;;5007208;28;20085;-89
2023/12/14 07:17:51;;;;;;;8.73;3.15;;;2.20;99.90;;;;;;5026858;28;20034;-90
2023/12/14 07:20:17;;;;;;;5.38;2.60;;;2.30;99.90;;;;;;4999376;28;20133;-93
2023/12/14 07:22:43;;;;;;;6.57;2.95;;;2.30;99.90;;;;;;5013096;28;20053;-91
2023/12/14 07:25:08;;;;;;;4.00;2.67;;;2.30;99.90;;;;;;5012498;28;20030;-90
2023/12/14 07:27:34;;;;;;;9.73;2.78;;;2.30;99.90;;;;;;4996279;28;20126;-90
2023/12/14 07:30:00;;;;;;;6.45;2.33;;;2.30;99.90;;;;;;4995849;28;20026;-89
2023/12/14 07:32:26;;;;;;;4.68;2.38;;;2.30;99.90;;;;;;4995321;28;20483;-92
2023/12/14 07:34:52;;;;;;;8.70;2.90;;;2.40;99.90;;;;;;4997373;28;20029;-90
2023/12/14 07:37:18;;;;;;;13.57;5.20;;;2.40;99.90;;;;;;4999258;28;20048;-91
2023/12/14 07:39:44;;;;;;;6.57;2.88;;;2.40;99.90;;;;;;4999474;28;20030;-91
2023/12/14 07:42:10;;;;;;;8.95;3.30;;;2.40;99.90;;;;;;5000420;28;20028;-92
2023/12/14 07:44:35;;;;;;;9.55;3.80;;;2.40;99.90;;;;;;5001894;28;20485;-92
2023/12/14 07:47:02;;;;;;;9.65;3.47;;;2.40;99.90;;;;;;4998996;28;20030;-90
2023/12/14 07:49:27;;;;;;;8.32;3.60;;;2.50;99.90;;;;;;4999018;28;20034;-91
2023/12/14 07:51:53;;;;;;;11.55;4.00;;;2.50;99.90;;;;;;5006744;28;20029;-91
2023/12/14 07:54:19;;;;;;;8.68;3.88;;;2.50;99.90;;;;;;5014941;28;20077;-90
2023/12/14 07:56:45;;;;;;;9.70;3.60;;;2.60;99.90;;;;;;5008316;28;20092;-91
2023/12/14 07:59:11;;;;;;;12.38;4.13;;;2.60;99.90;;;;;;5002943;28;20123;-91
2023/12/14 08:01:37;;;;;;;18.15;5.15;;;2.60;99.90;;;;;;5022834;28;20032;-90
2023/12/14 08:04:06;;;;;;;12.30;4.75;;;2.70;99.90;;;;;;5008532;28;20026;-91
2023/12/14 08:06:32;;;;;;;12.55;4.72;;;2.70;99.90;;;;;;5010776;28;20018;-91
2023/12/14 08:08:57;;;;;;;12.93;5.18;;;2.70;99.90;;;;;;5007359;28;20018;-91
2023/12/14 08:11:24;;;;;;;11.05;5.30;;;2.80;99.90;;;;;;5010354;28;20121;-91
2023/12/14 08:13:50;;;;;;;10.13;5.25;;;2.90;99.90;;;;;;5025087;28;20022;-90
2023/12/14 08:16:17;;;;;;;13.23;5.63;;;2.90;99.90;;;;;;5022950;28;20017;-91
2023/12/14 08:18:45;;;;;;;11.05;4.68;;;3.00;99.90;;;;;;5011683;28;20513;-90
2023/12/14 08:21:11;;;;;;;9.20;4.30;;;3.00;99.90;;;;;;5007615;28;20022;-90
2023/12/14 08:23:37;;;;;;;9.30;4.30;;;3.00;99.90;;;;;;5003037;28;20488;-91
2023/12/14 08:26:03;;;;;;;9.70;4.47;;;3.00;99.90;;;;;;5008069;28;20040;-90
2023/12/14 08:28:29;;;;;;;8.23;4.20;;;3.00;99.90;;;;;;5003788;28;20087;-90
2023/12/14 08:30:57;;;;;;;11.57;4.70;;;3.10;99.90;;;;;;5021960;28;20543;-89
2023/12/14 08:33:23;;;;;;;9.35;4.78;;;3.10;99.90;;;;;;5001641;28;20029;-91
2023/12/14 08:35:50;;;;;;;14.70;5.10;;;3.10;99.90;;;;;;5012320;28;20037;-89
2023/12/14 08:38:16;;;;;;;13.80;4.82;;;3.10;99.90;;;;;;5008197;28;20034;-91
2023/12/14 08:40:42;;;;;;;10.98;4.88;;;3.10;99.90;;;;;;5006119;28;20037;-91
2023/12/14 08:43:07;;;;;;;18.85;5.97;;;3.10;99.90;;;;;;5012033;28;20030;-92
2023/12/14 08:45:33;;;;;;;30.77;7.28;;;3.10;99.90;;;;;;5014595;28;20029;-90
2023/12/14 08:47:59;;;;;;;8.23;4.95;;;3.10;99.90;;;;;;5011799;28;20022;-92
2023/12/14 08:50:26;;;;;;;8.93;4.78;;;3.10;99.90;;;;;;5011351;28;20022;-92
2023/12/14 08:52:52;;;;;;;9.85;5.30;;;3.10;99.90;;;;;;5007063;28;20021;-91
2023/12/14 08:55:18;;;;;;;15.45;5.78;;;3.10;99.90;;;;;;5009144;28;20137;-90
2023/12/14 08:57:44;;;;;;;13.68;5.32;;;3.10;99.90;;;;;;5007038;28;20030;-91
2023/12/14 09:00:10;;;;;;;17.10;5.55;;;3.20;99.90;;;;;;5008062;28;20040;-91
2023/12/14 09:02:36;;;;;;;9.20;5.15;;;3.20;99.90;;;;;;5010874;28;20041;-91
2023/12/14 09:05:02;;;;;;;10.80;5.65;;;3.20;99.90;;;;;;5021125;28;20059;-91
2023/12/14 09:07:28;;;;;;;8.27;5.53;;;3.20;99.90;;;;;;5018103;28;20026;-91
2023/12/14 09:09:54;;;;;;;9.82;5.22;;;3.20;99.90;;;;;;5008575;28;20028;-92
2023/12/14 09:12:19;;;;;;;9.82;4.95;;;3.20;99.90;;;;;;5007728;28;20480;-92
2023/12/14 09:14:46;;;;;;;8.30;5.05;;;3.20;99.90;;;;;;5007050;28;20017;-91
2023/12/14 09:17:12;;;;;;;10.13;5.50;;;3.20;99.90;;;;;;5009530;28;20034;-90
2023/12/14 09:19:37;;;;;;;7.53;5.30;;;3.30;99.90;;;;;;5010942;28;20026;-90
2023/12/14 09:22:03;;;;;;;13.18;5.88;;;3.30;99.90;;;;;;5006516;28;20037;-90
2023/12/14 09:24:29;;;;;;;10.65;5.70;;;3.30;99.90;;;;;;5012795;28;20257;-92
2023/12/14 09:26:55;;;;;;;9.98;5.50;;;3.30;99.90;;;;;;5007511;28;20479;-90
2023/12/14 09:29:20;;;;;;;10.82;6.30;;;3.30;99.90;;;;;;5027404;28;20017;-90
2023/12/14 09:31:46;;;;;;;14.75;6.13;;;3.30;99.90;;;;;;5004273;28;20046;-90
2023/12/14 09:34:13;;;;;;;11.40;6.47;;;3.30;99.90;;;;;;5005891;28;20105;-90
2023/12/14 09:36:39;;;;;;;11.68;7.28;;;3.30;99.90;;;;;;5008038;28;20022;-90
2023/12/14 09:39:05;;;;;;;8.90;6.18;;;3.30;99.90;;;;;;5012017;28;20052;-90
2023/12/14 09:41:31;;;;;;;11.90;6.93;;;3.30;99.90;;;;;;5025518;28;20029;-89
2023/12/14 09:43:59;;;;;;;8.60;5.63;;;3.30;99.90;;;;;;5027427;28;20030;-92
2023/12/14 09:46:27;;;;;;;11.45;6.28;;;3.40;99.90;;;;;;5008514;28;20049;-90
2023/12/14 09:48:54;;;;;;;11.07;6.05;;;3.40;99.90;;;;;;5004703;28;20018;-92
2023/12/14 09:51:20;;;;;;;10.70;5.53;;;3.40;99.90;;;;;;5008455;28;20057;-90
2023/12/14 09:53:46;;;;;;;10.77;6.00;;;3.40;99.90;;;;;;5008241;28;20041;-91
2023/12/14 09:56:12;;;;;;;10.32;6.70;;;3.40;99.90;;;;;;5005086;28;20022;-92
2023/12/14 09:58:37;;;;;;;9.93;6.10;;;3.50;99.90;;;;;;5023847;28;20450;-91
2023/12/14 10:01:21;;;;;;;7.93;5.53;;;3.50;99.90;;;;;;5004920;28;20032;-90
2023/12/14 10:03:47;;;;;;;11.75;5.65;;;3.50;99.90;;;;;;5004968;28;20092;-91
2023/12/14 10:06:13;;;;;;;7.93;5.18;;;3.50;99.90;;;;;;5003978;28;20116;-92
2023/12/14 10:08:38;;;;;;;8.93;5.70;;;3.60;99.90;;;;;;5005059;28;20018;-93
2023/12/14 10:11:16;;;;;;;8.73;5.63;;;3.60;99.90;;;;;;5003136;28;20034;-92
2023/12/14 10:13:41;;;;;;;8.93;5.65;;;3.60;99.90;;;;;;5004113;28;20026;-91
2023/12/14 10:16:07;;;;;;;10.93;5.88;;;3.70;99.90;;;;;;5023510;28;20105;-91
2023/12/14 10:18:36;;;;;;;8.75;5.63;;;3.70;99.90;;;;;;5006520;28;20033;-91
2023/12/14 10:21:02;;;;;;;10.65;6.13;;;3.70;99.90;;;;;;5005005;28;20028;-92
2023/12/14 10:23:29;;;;;;;8.23;5.45;;;3.80;99.90;;;;;;5005121;28;20447;-91
2023/12/14 10:25:55;;;;;;;7.65;4.88;;;3.80;99.90;;;;;;5003497;28;20048;-91
2023/12/14 10:28:24;;;;;;;9.60;5.72;;;3.80;99.90;;;;;;5011301;28;20061;-91
2023/12/14 10:30:49;;;;;;;10.68;5.97;;;3.80;99.90;;;;;;5016700;28;20087;-92
2023/12/14 10:33:16;;;;;;;8.77;6.07;;;3.80;99.90;;;;;;5017714;28;20014;-90
2023/12/14 10:35:43;;;;;;;8.05;5.38;;;3.80;99.90;;;;;;5010393;28;20030;-91
2023/12/14 10:38:11;;;;;;;9.10;5.47;;;3.80;99.90;;;;;;5013004;28;20067;-92
2023/12/14 10:40:40;;;;;;;8.95;5.25;;;3.90;99.90;;;;;;5008383;28;20050;-92
2023/12/14 10:43:06;;;;;;;7.93;4.90;;;3.90;99.90;;;;;;5007316;28;20064;-92
2023/12/14 10:45:36;;;;;;;7.55;4.60;;;3.90;99.90;;;;;;5011322;28;20029;-93
2023/12/14 10:48:04;;;;;;;8.73;5.15;;;4.00;99.90;;;;;;5005747;28;20018;-92
2023/12/14 10:50:30;;;;;;;8.30;4.88;;;4.00;99.90;;;;;;5015965;28;20025;-90
2023/12/14 10:53:01;;;;;;;7.53;5.15;;;4.00;99.90;;;;;;5035735;28;20040;-91
2023/12/14 10:55:30;;;;;;;;;;;4.00;99.90;;;;;;5011342;28;20068;-91
2023/12/14 10:57:58;;;;;;;7.45;5.03;;;4.00;99.90;;;;;;5030161;28;19947;-91
2023/12/14 11:00:23;;;;;;;8.13;4.82;;;4.10;99.90;;;;;;5015577;28;20061;-92
2023/12/14 11:02:49;;;;;;;8.18;5.72;;;4.10;99.90;;;;;;5008593;28;20034;-94
2023/12/14 11:05:19;;;;;;;9.18;5.45;;;4.10;99.90;;;;;;5011494;28;20026;-93
2023/12/14 11:07:50;;;;;;;8.93;5.70;;;4.20;99.90;;;;;;5004984;28;20045;-93
2023/12/14 11:10:59;;;;;;;11.48;5.75;;;4.20;99.90;;;;;;5015015;28;20033;-93
2023/12/14 11:13:26;;;;;;;11.50;6.05;;;4.20;99.90;;;;;;5014377;28;20029;-90
2023/12/14 11:15:52;;;;;;;9.05;5.78;;;4.30;99.90;;;;;;5011930;28;20467;-91
2023/12/14 11:18:18;;;;;;;10.30;5.70;;;4.30;99.90;;;;;;5023292;28;20038;-92
2023/12/14 11:21:01;;;;;;;9.25;6.15;;;4.40;99.90;;;;;;5027551;28;20018;-91
2023/12/14 11:23:38;;;;;;;10.75;5.72;;;4.40;99.90;;;;;;5016226;28;20034;-91
2023/12/14 11:26:06;;;;;;;8.57;5.45;;;4.40;99.90;;;;;;5028333;28;20026;-91
2023/12/14 11:28:37;;;;;;;7.35;4.82;;;4.40;99.90;;;;;;5016921;28;20179;-91
2023/12/14 11:31:06;;;;;;;8.30;5.63;;;4.50;99.90;;;;;;5008135;28;20053;-90
2023/12/14 11:33:36;;;;;;;10.60;5.97;;;4.50;99.90;;;;;;5013750;28;20035;-92
2023/12/14 11:36:06;;;;;;;9.13;5.22;;;4.50;99.90;;;;;;5017879;28;20018;-91
2023/12/14 11:38:35;;;;;;;10.60;5.65;;;4.50;99.90;;;;;;5026540;28;20475;-91
2023/12/14 11:41:01;;;;;;;9.57;6.15;;;4.50;99.90;;;;;;5008252;28;20022;-92
2023/12/14 11:43:26;;;;;;;8.75;5.22;;;4.50;99.90;;;;;;5012520;28;20032;-93
2023/12/14 11:45:54;;;;;;;13.65;7.75;;;4.50;99.90;;;;;;5013039;28;20059;-93
2023/12/14 11:48:20;;;;;;;18.60;9.15;;;4.50;99.90;;;;;;5010221;28;20097;-93
2023/12/14 11:50:47;;;;;;;16.77;8.80;;;4.50;99.90;;;;;;5011534;28;20482;-92
2023/12/14 11:53:13;;;;;;;19.50;8.73;;;4.50;99.90;;;;;;5007586;28;20032;-92
2023/12/14 11:55:42;;;;;;;14.05;8.10;;;4.60;99.90;;;;;;5017227;28;20041;-91
2023/12/14 11:58:13;;;;;;;13.00;7.43;;;4.60;99.90;;;;;;5011867;28;20109;-91
2023/12/14 12:00:41;;;;;;;;;;;4.60;99.90;;;;;;5015228;28;20037;-92
2023/12/14 12:03:15;;;;;;;17.55;8.02;;;4.60;99.90;;;;;;5017637;28;19913;-92
2023/12/14 12:05:46;;;;;;;15.07;7.70;;;4.60;99.90;;;;;;5009994;28;20502;-90
2023/12/14 12:08:15;;;;;;;13.82;7.82;;;4.60;99.90;;;;;;5021823;28;20018;-93
2023/12/14 12:10:42;;;;;;;14.73;8.48;;;4.70;99.90;;;;;;5011252;28;20022;-95
2023/12/14 12:13:12;;;;;;;16.38;8.95;;;4.70;99.90;;;;;;5015398;28;20048;-93
2023/12/14 12:15:46;;;;;;;17.67;9.05;;;4.60;99.90;;;;;;5015798;28;20048;-93
2023/12/14 12:18:13;;;;;;;12.77;7.45;;;4.70;99.90;;;;;;5019226;28;20133;-93
2023/12/14 12:20:39;;;;;;;16.60;8.38;;;4.70;99.90;;;;;;5005733;28;20027;-93
2023/12/14 12:23:05;;;;;;;16.90;8.55;;;4.70;99.90;;;;;;5015548;28;20049;-92
2023/12/14 12:25:32;;;;;;;18.60;8.18;;;4.70;99.90;;;;;;5035881;28;20033;-92
2023/12/14 12:28:03;;;;;;;12.50;7.78;;;4.80;99.90;;;;;;5027917;28;20024;-89
2023/12/14 12:30:29;;;;;;;12.25;7.13;;;4.80;99.90;;;;;;5018755;28;20034;-90
2023/12/14 12:32:55;;;;;;;14.10;7.80;;;4.80;99.90;;;;;;5054653;28;20089;-91
2023/12/14 12:35:22;;;;;;;17.35;8.80;;;4.80;99.90;;;;;;5042119;28;20045;-89
2023/12/14 12:37:53;;;;;;;15.10;8.13;;;4.80;99.90;;;;;;5041121;28;20075;-91
2023/12/14 12:40:23;;;;;;;15.38;7.85;;;4.90;99.90;;;;;;5034087;28;20033;-93
2023/12/14 12:42:49;;;;;;;15.50;8.25;;;4.90;99.90;;;;;;5019458;28;20116;-93
2023/12/14 12:45:17;;;;;;;16.70;9.50;;;4.90;99.90;;;;;;5012510;28;20056;-93
2023/12/14 12:47:43;;;;;;;14.90;8.52;;;4.90;99.90;;;;;;5023953;28;20063;-94
2023/12/14 12:50:09;;;;;;;17.10;8.80;;;4.90;99.90;;;;;;5037284;28;20149;-95